Time;durP1;ratioP1;P1;durP2;ratioP2;P2;SDS_P1;SDS_P2;PMS_P1;PMS_P2;Temp;Humidity;BMP_temperature;BMP_pressure;BME280_temperature;BME280_humidity;BME280_pressure;Samples;Min_cycle;Max_cycle;Signal;HPM_P1;HPM_P2
2023/04/19 00:01:27;;;;;;;4.82;2.13;;;;;;;;;;5150477;27;20030;-73
2023/04/19 00:03:53;;;;;;;7.53;2.10;;;;;;;;;;5150495;27;20015;-74
2023/04/19 00:06:19;;;;;;;4.10;1.90;;;;;;;;;;5150220;27;20057;-63
2023/04/19 00:08:45;;;;;;;6.50;2.35;;;;;;;;;;5150344;27;20030;-72
2023/04/19 00:11:10;;;;;;;6.75;2.30;;;;;;;;;;5150517;27;20345;-72
2023/04/19 00:13:36;;;;;;;3.78;2.20;;;;;;;;;;5150366;27;20027;-72
2023/04/19 00:16:01;;;;;;;5.00;2.00;;;;;;;;;;5150195;27;20026;-73
2023/04/19 00:18:27;;;;;;;4.72;1.85;;;;;;;;;;5150108;27;20019;-65
2023/04/19 00:20:52;;;;;;;5.03;2.13;;;;;;;;;;5150190;27;20023;-69
2023/04/19 00:23:18;;;;;;;5.35;2.28;;;;;;;;;;5149509;27;20031;-63
2023/04/19 00:25:48;;;;;;;4.60;2.10;;;;;;;;;;5150224;27;20027;-73
2023/04/19 00:28:13;;;;;;;8.38;2.15;;;;;;;;;;5149747;27;20022;-73
2023/04/19 00:30:38;;;;;;;4.30;1.85;;;;;;;;;;5150506;27;20037;-64
2023/04/19 00:33:04;;;;;;;5.40;1.95;;;;;;;;;;5133708;27;20050;-73
2023/04/19 00:35:29;;;;;;;4.65;1.70;;;;;;;;;;5128657;27;20481;-64
2023/04/19 00:37:55;;;;;;;5.13;2.28;;;;;;;;;;5129451;27;20031;-65
2023/04/19 00:40:20;;;;;;;4.65;2.20;;;;;;;;;;5129093;27;20042;-73
2023/04/19 00:42:45;;;;;;;5.72;3.05;;;;;;;;;;5128722;27;20019;-67
2023/04/19 00:45:11;;;;;;;6.30;2.58;;;;;;;;;;5128971;27;20023;-66
2023/04/19 00:47:37;;;;;;;8.95;2.80;;;;;;;;;;5129684;27;20069;-73
2023/04/19 00:50:03;;;;;;;5.53;2.40;;;;;;;;;;5134458;27;20019;-69
2023/04/19 00:52:29;;;;;;;9.23;3.30;;;;;;;;;;5150047;27;20034;-68
2023/04/19 00:54:56;;;;;;;8.55;2.85;;;;;;;;;;5149785;27;20023;-72
2023/04/19 00:57:22;;;;;;;13.98;3.97;;;;;;;;;;5149289;27;20443;-73
2023/04/19 00:59:48;;;;;;;14.63;5.03;;;;;;;;;;5149606;27;20054;-73
2023/04/19 01:02:13;;;;;;;12.05;5.07;;;;;;;;;;5150018;27;20105;-73
2023/04/19 01:04:39;;;;;;;11.95;5.18;;;;;;;;;;5151221;27;20468;-64
2023/04/19 01:07:04;;;;;;;13.40;5.15;;;;;;;;;;5154126;27;20369;-74
2023/04/19 01:09:30;;;;;;;17.60;5.00;;;;;;;;;;5154177;27;20046;-65
2023/04/19 01:11:55;;;;;;;10.57;4.47;;;;;;;;;;5154094;27;20037;-73
2023/04/19 01:14:21;;;;;;;11.50;4.05;;;;;;;;;;5153323;27;20023;-74
2023/04/19 01:16:46;;;;;;;11.93;4.13;;;;;;;;;;5153755;27;20023;-74
2023/04/19 01:19:12;;;;;;;9.18;3.75;;;;;;;;;;5154019;27;20030;-65
2023/04/19 01:21:38;;;;;;;7.95;3.40;;;;;;;;;;5154147;27;20022;-68
2023/04/19 01:24:04;;;;;;;8.85;3.25;;;;;;;;;;5146147;27;20030;-70
2023/04/19 01:26:30;;;;;;;9.57;3.25;;;;;;;;;;5132372;27;20030;-73
2023/04/19 01:28:55;;;;;;;5.63;2.80;;;;;;;;;;5132992;27;20025;-72
2023/04/19 01:31:21;;;;;;;7.97;2.80;;;;;;;;;;5132162;27;20389;-71
2023/04/19 01:33:46;;;;;;;5.65;2.65;;;;;;;;;;5132714;27;20027;-71
2023/04/19 01:36:12;;;;;;;5.72;2.83;;;;;;;;;;5136857;27;20035;-62
2023/04/19 01:38:37;;;;;;;6.55;2.72;;;;;;;;;;5153927;27;20019;-72
2023/04/19 01:41:03;;;;;;;4.93;2.92;;;;;;;;;;5152763;27;20044;-69
2023/04/19 01:43:28;;;;;;;6.05;2.70;;;;;;;;;;5153115;27;20118;-67
2023/04/19 01:45:53;;;;;;;7.45;2.88;;;;;;;;;;5153319;27;20026;-76
2023/04/19 01:48:19;;;;;;;9.68;2.90;;;;;;;;;;5152980;27;20030;-74
2023/04/19 01:50:44;;;;;;;10.60;3.05;;;;;;;;;;5141719;27;20031;-63
2023/04/19 01:53:10;;;;;;;6.32;3.03;;;;;;;;;;5132590;27;20430;-65
2023/04/19 01:55:35;;;;;;;8.68;2.72;;;;;;;;;;5130488;27;20024;-67
2023/04/19 01:58:00;;;;;;;6.10;2.78;;;;;;;;;;5133082;27;20035;-74
2023/04/19 02:00:26;;;;;;;6.68;2.60;;;;;;;;;;5131868;27;20029;-73
2023/04/19 02:02:51;;;;;;;7.18;2.92;;;;;;;;;;5132159;27;20102;-63
2023/04/19 02:05:17;;;;;;;8.70;3.10;;;;;;;;;;5131622;27;20019;-65
2023/04/19 02:07:42;;;;;;;7.15;3.20;;;;;;;;;;5132332;27;20055;-74
2023/04/19 02:10:11;;;;;;;6.68;3.47;;;;;;;;;;5132644;27;20027;-75
2023/04/19 02:12:36;;;;;;;6.30;2.83;;;;;;;;;;5132367;27;20064;-67
2023/04/19 02:15:03;;;;;;;6.22;3.05;;;;;;;;;;5132009;27;20481;-72
2023/04/19 02:17:29;;;;;;;6.20;3.03;;;;;;;;;;5149029;27;20479;-65
2023/04/19 02:19:54;;;;;;;8.68;3.15;;;;;;;;;;5153231;27;20138;-74
2023/04/19 02:22:20;;;;;;;7.68;3.22;;;;;;;;;;5152172;27;20362;-69
2023/04/19 02:24:46;;;;;;;11.40;4.00;;;;;;;;;;5152218;27;20054;-74
2023/04/19 02:27:12;;;;;;;4.05;2.30;;;;;;;;;;5153409;27;20107;-66
2023/04/19 02:29:38;;;;;;;6.28;2.35;;;;;;;;;;5152312;27;20030;-74
2023/04/19 02:32:05;;;;;;;5.13;2.20;;;;;;;;;;5144507;27;20031;-75
2023/04/19 02:34:34;;;;;;;6.05;2.22;;;;;;;;;;5131410;27;20039;-74
2023/04/19 02:37:00;;;;;;;6.57;2.50;;;;;;;;;;5131291;27;20038;-64
2023/04/19 02:39:26;;;;;;;6.22;2.53;;;;;;;;;;5150365;27;20023;-70
2023/04/19 02:41:51;;;;;;;7.95;3.00;;;;;;;;;;5150809;27;20392;-75
2023/04/19 02:44:17;;;;;;;7.32;2.85;;;;;;;;;;5151791;27;20019;-75
2023/04/19 02:46:52;;;;;;;5.55;2.58;;;;;;;;;;5151964;27;20017;-69
2023/04/19 02:49:18;;;;;;;6.78;2.53;;;;;;;;;;5151797;27;20042;-70
2023/04/19 02:51:43;;;;;;;7.03;2.55;;;;;;;;;;5132123;27;20037;-74
2023/04/19 02:54:10;;;;;;;5.93;2.88;;;;;;;;;;5139793;27;20383;-70
2023/04/19 02:56:35;;;;;;;5.85;2.20;;;;;;;;;;5152044;27;20019;-75
2023/04/19 02:59:01;;;;;;;5.65;2.40;;;;;;;;;;5151806;27;20045;-70
2023/04/19 03:01:26;;;;;;;6.22;2.38;;;;;;;;;;5151700;27;20033;-75
2023/04/19 03:03:52;;;;;;;5.43;3.38;;;;;;;;;;5152660;27;20464;-74
2023/04/19 03:06:17;;;;;;;9.77;5.03;;;;;;;;;;5151422;27;20087;-74
2023/04/19 03:08:43;;;;;;;12.93;6.45;;;;;;;;;;5151790;27;20034;-65
2023/04/19 03:11:10;;;;;;;7.15;2.85;;;;;;;;;;5152358;27;20042;-75
2023/04/19 03:13:36;;;;;;;8.55;3.08;;;;;;;;;;5152281;27;20612;-64
2023/04/19 03:16:02;;;;;;;9.75;3.13;;;;;;;;;;5151694;27;20027;-74
2023/04/19 03:18:27;;;;;;;10.52;2.72;;;;;;;;;;5150105;27;20042;-75
2023/04/19 03:20:52;;;;;;;4.93;2.45;;;;;;;;;;5151882;27;20022;-70
2023/04/19 03:23:18;;;;;;;12.18;3.42;;;;;;;;;;5131601;27;20061;-74
2023/04/19 03:25:43;;;;;;;7.63;2.47;;;;;;;;;;5131222;27;20027;-71
2023/04/19 03:28:09;;;;;;;6.20;2.80;;;;;;;;;;5131255;27;20023;-65
2023/04/19 03:30:34;;;;;;;7.38;2.92;;;;;;;;;;5130620;27;20042;-72
2023/04/19 03:33:00;;;;;;;8.20;3.80;;;;;;;;;;5130184;27;20051;-65
2023/04/19 03:35:25;;;;;;;11.82;3.67;;;;;;;;;;5130065;27;20019;-71
2023/04/19 03:37:51;;;;;;;7.60;2.80;;;;;;;;;;5130906;27;20029;-75
2023/04/19 03:40:16;;;;;;;5.15;2.40;;;;;;;;;;5130233;27;20381;-74
2023/04/19 03:42:42;;;;;;;6.55;2.40;;;;;;;;;;5130204;27;20095;-75
2023/04/19 03:45:08;;;;;;;9.68;3.63;;;;;;;;;;5130784;27;20027;-75
2023/04/19 03:47:33;;;;;;;8.50;3.05;;;;;;;;;;5130103;27;20034;-72
2023/04/19 03:49:59;;;;;;;5.63;2.40;;;;;;;;;;5129904;27;20034;-64
2023/04/19 03:52:24;;;;;;;6.28;2.45;;;;;;;;;;5130152;27;20355;-68
2023/04/19 03:54:50;;;;;;;8.80;3.70;;;;;;;;;;5130062;27;20027;-75
2023/04/19 03:57:16;;;;;;;8.45;3.85;;;;;;;;;;5130007;27;20019;-73
2023/04/19 03:59:42;;;;;;;6.15;3.08;;;;;;;;;;5135559;27;20029;-70
2023/04/19 04:02:07;;;;;;;8.82;3.67;;;;;;;;;;5134943;27;20027;-71
2023/04/19 04:04:32;;;;;;;20.73;7.32;;;;;;;;;;5129473;27;20477;-74
2023/04/19 04:06:58;;;;;;;7.47;3.85;;;;;;;;;;5129986;27;20093;-71
2023/04/19 04:09:23;;;;;;;12.50;3.83;;;;;;;;;;5129536;27;20034;-72
2023/04/19 04:11:49;;;;;;;9.90;3.92;;;;;;;;;;5129606;27;20091;-67
2023/04/19 04:14:14;;;;;;;8.30;4.20;;;;;;;;;;5129478;27;20042;-64
2023/04/19 04:16:40;;;;;;;8.65;3.63;;;;;;;;;;5130118;27;20023;-64
2023/04/19 04:19:05;;;;;;;7.07;3.03;;;;;;;;;;5129931;27;20103;-74
2023/04/19 04:21:30;;;;;;;6.13;2.40;;;;;;;;;;5129122;27;20064;-75
2023/04/19 04:23:56;;;;;;;8.32;3.88;;;;;;;;;;5129825;27;20023;-75
2023/04/19 04:26:24;;;;;;;11.70;4.68;;;;;;;;;;5129110;27;20023;-65
2023/04/19 04:28:49;;;;;;;7.70;4.07;;;;;;;;;;5129789;27;20513;-64
2023/04/19 04:31:16;;;;;;;13.23;3.72;;;;;;;;;;5128709;27;20043;-66
2023/04/19 04:33:43;;;;;;;7.65;2.95;;;;;;;;;;5129704;27;20046;-69
2023/04/19 04:36:10;;;;;;;11.50;2.90;;;;;;;;;;5129830;27;20031;-75
2023/04/19 04:38:36;;;;;;;8.80;2.85;;;;;;;;;;5129778;27;20137;-71
2023/04/19 04:41:01;;;;;;;6.63;2.60;;;;;;;;;;5128799;27;20023;-71
2023/04/19 04:43:28;;;;;;;7.10;2.72;;;;;;;;;;5129131;27;20373;-73
2023/04/19 04:45:56;;;;;;;6.38;2.58;;;;;;;;;;5129360;27;20023;-75
2023/04/19 04:48:21;;;;;;;6.63;2.67;;;;;;;;;;5128728;27;20019;-74
2023/04/19 04:50:47;;;;;;;11.55;3.60;;;;;;;;;;5129395;27;20023;-73
2023/04/19 04:53:12;;;;;;;15.75;6.35;;;;;;;;;;5128759;27;20023;-69
2023/04/19 04:55:38;;;;;;;21.77;7.32;;;;;;;;;;5129677;27;20474;-65
2023/04/19 04:58:06;;;;;;;21.75;10.15;;;;;;;;;;5129259;27;20015;-73
2023/04/19 05:00:31;;;;;;;15.10;5.25;;;;;;;;;;5128707;27;20063;-75
2023/04/19 05:02:58;;;;;;;19.27;7.85;;;;;;;;;;5129185;27;20027;-75
2023/04/19 05:05:23;;;;;;;16.27;4.70;;;;;;;;;;5128601;27;20080;-65
2023/04/19 05:07:49;;;;;;;14.15;5.10;;;;;;;;;;5129201;27;20035;-73
2023/04/19 05:10:14;;;;;;;9.90;4.53;;;;;;;;;;5128791;27;20047;-70
2023/04/19 05:12:40;;;;;;;13.32;4.50;;;;;;;;;;5129206;27;20148;-68
2023/04/19 05:15:06;;;;;;;18.40;4.93;;;;;;;;;;5129419;27;20031;-75
2023/04/19 05:17:32;;;;;;;12.73;4.63;;;;;;;;;;5128258;27;20023;-73
2023/04/19 05:19:58;;;;;;;13.30;4.90;;;;;;;;;;5129046;27;20026;-73
2023/04/19 05:22:23;;;;;;;13.35;5.30;;;;;;;;;;5128690;27;20118;-66
2023/04/19 05:24:49;;;;;;;17.55;7.13;;;;;;;;;;5128792;27;20027;-74
2023/04/19 05:27:15;;;;;;;15.85;6.03;;;;;;;;;;5128551;27;20027;-69
2023/04/19 05:29:40;;;;;;;15.45;4.93;;;;;;;;;;5128700;27;20462;-63
2023/04/19 05:32:06;;;;;;;18.25;4.45;;;;;;;;;;5128551;27;20393;-72
2023/04/19 05:34:32;;;;;;;17.77;4.95;;;;;;;;;;5128963;27;20095;-64
2023/04/19 05:36:58;;;;;;;11.82;4.00;;;;;;;;;;5127401;27;20482;-67
2023/04/19 05:39:23;;;;;;;16.23;4.65;;;;;;;;;;5128982;27;20023;-73
2023/04/19 05:41:49;;;;;;;12.43;3.55;;;;;;;;;;5128860;27;20039;-64
2023/04/19 05:44:15;;;;;;;14.75;4.15;;;;;;;;;;5127934;27;20023;-64
2023/04/19 05:46:40;;;;;;;12.48;4.03;;;;;;;;;;5128935;27;20933;-68
2023/04/19 05:49:06;;;;;;;10.38;3.40;;;;;;;;;;5129141;27;20078;-74
2023/04/19 05:51:31;;;;;;;13.77;4.63;;;;;;;;;;5128914;27;21812;-71
2023/04/19 05:53:56;;;;;;;13.80;3.78;;;;;;;;;;5132826;27;20029;-67
2023/04/19 05:56:22;;;;;;;9.77;3.70;;;;;;;;;;5132616;27;20023;-69
2023/04/19 05:58:47;;;;;;;9.27;3.63;;;;;;;;;;5132204;27;20027;-72
2023/04/19 06:01:13;;;;;;;11.80;3.80;;;;;;;;;;5132784;27;20084;-71
2023/04/19 06:03:38;;;;;;;9.40;3.33;;;;;;;;;;5132298;27;20084;-64
2023/04/19 06:06:04;;;;;;;10.32;3.30;;;;;;;;;;5152546;27;20031;-64
2023/04/19 06:08:29;;;;;;;8.85;3.00;;;;;;;;;;5151375;27;20401;-68
2023/04/19 06:10:55;;;;;;;9.50;3.20;;;;;;;;;;5152956;27;20376;-70
2023/04/19 06:13:21;;;;;;;13.43;3.95;;;;;;;;;;5153135;27;20030;-69
2023/04/19 06:15:47;;;;;;;6.68;2.70;;;;;;;;;;5152530;27;20114;-73
2023/04/19 06:18:13;;;;;;;10.45;3.28;;;;;;;;;;5152186;27;20019;-72
2023/04/19 06:20:39;;;;;;;12.35;3.35;;;;;;;;;;5152604;27;20514;-64
2023/04/19 06:23:05;;;;;;;11.45;2.63;;;;;;;;;;5152853;27;20027;-66
2023/04/19 06:25:31;;;;;;;9.50;3.08;;;;;;;;;;5152155;27;20030;-69
2023/04/19 06:27:56;;;;;;;15.85;3.95;;;;;;;;;;5152566;27;20033;-66
2023/04/19 06:30:21;;;;;;;15.18;3.58;;;;;;;;;;5151824;27;20018;-73
2023/04/19 06:32:47;;;;;;;9.02;2.97;;;;;;;;;;5138352;27;20136;-72
2023/04/19 06:35:13;;;;;;;8.63;3.28;;;;;;;;;;5131843;27;20020;-68
2023/04/19 06:37:39;;;;;;;11.20;2.90;;;;;;;;;;5132008;27;20027;-63
2023/04/19 06:40:07;;;;;;;10.75;2.70;;;;;;;;;;5131531;27;20505;-70
2023/04/19 06:42:33;;;;;;;9.20;2.97;;;;;;;;;;5131147;27;20394;-72
2023/04/19 06:44:58;;;;;;;8.10;2.60;;;;;;;;;;5131288;27;20439;-63
2023/04/19 06:47:24;;;;;;;7.60;2.70;;;;;;;;;;5130892;27;20028;-73
2023/04/19 06:49:49;;;;;;;5.35;2.15;;;;;;;;;;5131262;27;20031;-67
2023/04/19 06:52:14;;;;;;;12.20;2.78;;;;;;;;;;5130969;27;20023;-69
2023/04/19 06:54:40;;;;;;;7.60;2.15;;;;;;;;;;5144490;27;20067;-63
2023/04/19 06:57:05;;;;;;;12.40;2.70;;;;;;;;;;5152507;27;20015;-74
2023/04/19 06:59:32;;;;;;;6.07;2.70;;;;;;;;;;5151237;27;20464;-65
2023/04/19 07:01:57;;;;;;;9.18;2.35;;;;;;;;;;5140539;27;20113;-72
2023/04/19 07:04:25;;;;;;;7.43;2.13;;;;;;;;;;5130645;27;20485;-65
2023/04/19 07:06:51;;;;;;;6.45;2.33;;;;;;;;;;5126758;27;20015;-66
2023/04/19 07:09:16;;;;;;;6.30;2.45;;;;;;;;;;5131707;27;20418;-67
2023/04/19 07:11:42;;;;;;;9.77;2.30;;;;;;;;;;5131770;27;20039;-69
2023/04/19 07:14:07;;;;;;;6.43;2.28;;;;;;;;;;5146142;27;20023;-71
2023/04/19 07:16:32;;;;;;;8.38;2.88;;;;;;;;;;5139635;27;20015;-71
2023/04/19 07:18:58;;;;;;;7.00;2.47;;;;;;;;;;5146401;27;20062;-63
2023/04/19 07:21:25;;;;;;;6.60;2.20;;;;;;;;;;5150868;27;20050;-64
2023/04/19 07:23:51;;;;;;;5.55;2.42;;;;;;;;;;5151515;27;20068;-71
2023/04/19 07:26:16;;;;;;;9.13;2.47;;;;;;;;;;5136427;27;20019;-63
2023/04/19 07:28:42;;;;;;;5.90;2.25;;;;;;;;;;5129142;27;20027;-63
2023/04/19 07:31:13;;;;;;;7.22;2.30;;;;;;;;;;5130879;27;20043;-71
2023/04/19 07:33:38;;;;;;;8.10;2.40;;;;;;;;;;5128717;27;20065;-63
2023/04/19 07:36:05;;;;;;;6.18;2.22;;;;;;;;;;5141959;27;20481;-63
2023/04/19 07:38:30;;;;;;;8.25;3.40;;;;;;;;;;5129882;27;20432;-70
2023/04/19 07:40:56;;;;;;;7.70;2.60;;;;;;;;;;5130456;27;20028;-71
2023/04/19 07:43:21;;;;;;;5.75;2.67;;;;;;;;;;5129727;27;20031;-71
2023/04/19 07:45:47;;;;;;;6.45;2.88;;;;;;;;;;5130118;27;20055;-68
2023/04/19 07:48:12;;;;;;;8.00;2.60;;;;;;;;;;5129738;27;20027;-68
2023/04/19 07:50:37;;;;;;;9.05;2.40;;;;;;;;;;5130660;27;20508;-67
2023/04/19 07:53:03;;;;;;;6.35;2.10;;;;;;;;;;5130113;27;20061;-67
2023/04/19 07:55:28;;;;;;;7.88;2.47;;;;;;;;;;5129854;27;20451;-68
2023/04/19 07:57:55;;;;;;;9.73;2.75;;;;;;;;;;5129881;27;20043;-71
2023/04/19 08:00:21;;;;;;;10.65;2.80;;;;;;;;;;5129414;27;20023;-62
2023/04/19 08:02:47;;;;;;;7.50;2.75;;;;;;;;;;5144483;27;20027;-70
2023/04/19 08:05:16;;;;;;;10.23;2.70;;;;;;;;;;5150218;27;20136;-62
2023/04/19 08:07:42;;;;;;;8.05;2.67;;;;;;;;;;5150572;27;20103;-66
2023/04/19 08:10:09;;;;;;;9.13;3.30;;;;;;;;;;5151581;27;20029;-65
2023/04/19 08:12:35;;;;;;;8.30;2.70;;;;;;;;;;5150354;27;20511;-68
2023/04/19 08:15:01;;;;;;;7.10;2.90;;;;;;;;;;5147038;27;20070;-70
2023/04/19 08:17:26;;;;;;;7.60;2.63;;;;;;;;;;5129768;27;20102;-71
2023/04/19 08:19:52;;;;;;;8.65;2.72;;;;;;;;;;5129534;27;20114;-63
2023/04/19 08:22:18;;;;;;;10.23;3.17;;;;;;;;;;5129367;27;20511;-67
2023/04/19 08:24:44;;;;;;;9.98;3.63;;;;;;;;;;5129515;27;20097;-71
2023/04/19 08:27:09;;;;;;;10.63;3.25;;;;;;;;;;5129740;27;20485;-64
2023/04/19 08:29:36;;;;;;;8.35;2.80;;;;;;;;;;5129621;27;20062;-70
2023/04/19 08:32:01;;;;;;;11.23;3.60;;;;;;;;;;5129237;27;20482;-76
2023/04/19 08:34:27;;;;;;;8.65;3.25;;;;;;;;;;5129234;27;20125;-74
2023/04/19 08:36:52;;;;;;;14.63;3.97;;;;;;;;;;5129612;27;20477;-64
2023/04/19 08:39:18;;;;;;;10.65;3.63;;;;;;;;;;5128937;27;20031;-63
2023/04/19 08:41:43;;;;;;;8.18;3.78;;;;;;;;;;5129184;27;20034;-65
2023/04/19 08:44:11;;;;;;;8.05;3.60;;;;;;;;;;5129974;27;20019;-63
2023/04/19 08:46:36;;;;;;;8.43;3.42;;;;;;;;;;5129358;27;20067;-68
2023/04/19 08:49:04;;;;;;;14.10;3.60;;;;;;;;;;5129298;27;20110;-62
2023/04/19 08:51:31;;;;;;;11.05;3.55;;;;;;;;;;5129015;27;20031;-72
2023/04/19 08:53:58;;;;;;;11.88;3.50;;;;;;;;;;5129424;27;20023;-73
2023/04/19 08:56:24;;;;;;;11.77;4.25;;;;;;;;;;5137243;27;20517;-66
2023/04/19 08:58:50;;;;;;;9.73;3.50;;;;;;;;;;5129338;27;20023;-66
2023/04/19 09:01:16;;;;;;;9.07;3.22;;;;;;;;;;5137004;27;20439;-65
2023/04/19 09:03:47;;;;;;;8.02;3.78;;;;;;;;;;5132921;27;20019;-63
2023/04/19 09:06:12;;;;;;;10.30;3.50;;;;;;;;;;5133273;27;20409;-66
2023/04/19 09:08:39;;;;;;;6.30;3.00;;;;;;;;;;5147756;27;20022;-73
2023/04/19 09:11:05;;;;;;;10.13;3.17;;;;;;;;;;5127949;27;20362;-69
2023/04/19 09:13:31;;;;;;;7.85;3.58;;;;;;;;;;5139748;27;20149;-71
2023/04/19 09:15:59;;;;;;;11.00;4.10;;;;;;;;;;5135868;27;20058;-74
2023/04/19 09:18:24;;;;;;;10.13;3.88;;;;;;;;;;5132086;27;20023;-73
2023/04/19 09:20:56;;;;;;;10.95;3.25;;;;;;;;;;5133617;27;20027;-67
2023/04/19 09:23:24;;;;;;;9.13;3.70;;;;;;;;;;5129882;27;20118;-63
2023/04/19 09:25:53;;;;;;;8.73;3.47;;;;;;;;;;5149892;27;20094;-66
2023/04/19 09:28:19;;;;;;;10.48;3.47;;;;;;;;;;5150243;27;20035;-69
2023/04/19 09:30:45;;;;;;;23.98;3.60;;;;;;;;;;5144563;27;20092;-70
2023/04/19 09:33:11;;;;;;;9.25;3.40;;;;;;;;;;5140514;27;20088;-63
2023/04/19 09:35:46;;;;;;;8.60;3.60;;;;;;;;;;5138946;27;20102;-73
2023/04/19 09:38:12;;;;;;;6.68;3.78;;;;;;;;;;5132712;27;20110;-66
2023/04/19 09:40:39;;;;;;;9.60;4.00;;;;;;;;;;5132959;27;20419;-63
2023/04/19 09:43:05;;;;;;;8.20;3.50;;;;;;;;;;5131864;27;20049;-71
2023/04/19 09:45:45;;;;;;;7.65;3.10;;;;;;;;;;5132431;27;20391;-69
2023/04/19 09:48:12;;;;;;;10.43;3.30;;;;;;;;;;5132871;27;20087;-63
2023/04/19 09:50:54;;;;;;;8.15;3.22;;;;;;;;;;5132452;27;20062;-68
2023/04/19 09:53:21;;;;;;;7.20;2.95;;;;;;;;;;5131859;27;20084;-69
2023/04/19 09:55:47;;;;;;;8.93;3.00;;;;;;;;;;5132764;27;20031;-69
2023/04/19 09:58:14;;;;;;;7.70;3.72;;;;;;;;;;5132584;27;20023;-69
2023/04/19 10:00:42;;;;;;;10.93;3.40;;;;;;;;;;5136767;27;20031;-68
2023/04/19 10:03:09;;;;;;;9.15;2.70;;;;;;;;;;5141216;27;20473;-70
2023/04/19 10:05:38;;;;;;;7.93;3.10;;;;;;;;;;5132071;27;20033;-68
2023/04/19 10:08:07;;;;;;;7.53;3.10;;;;;;;;;;5132040;27;20025;-63
2023/04/19 10:10:33;;;;;;;8.18;4.05;;;;;;;;;;5131990;27;20761;-64
2023/04/19 10:13:01;;;;;;;8.73;3.22;;;;;;;;;;5132219;27;20389;-65
2023/04/19 10:15:28;;;;;;;7.15;3.45;;;;;;;;;;5131787;27;20027;-64
2023/04/19 10:17:54;;;;;;;8.93;3.22;;;;;;;;;;5132168;27;20482;-71
2023/04/19 10:20:25;;;;;;;10.02;3.25;;;;;;;;;;5131663;27;20035;-69
2023/04/19 10:22:51;;;;;;;8.63;3.38;;;;;;;;;;5131911;27;20019;-68
2023/04/19 10:25:16;;;;;;;8.18;3.25;;;;;;;;;;5131509;27;20022;-68
2023/04/19 10:27:47;;;;;;;7.28;3.75;;;;;;;;;;5130458;27;20042;-71
2023/04/19 10:30:23;;;;;;;15.85;3.50;;;;;;;;;;5131888;27;20031;-71
2023/04/19 10:32:55;;;;;;;6.38;3.53;;;;;;;;;;5131388;27;20043;-66
2023/04/19 10:35:24;;;;;;;9.95;3.47;;;;;;;;;;5131172;27;20538;-65
2023/04/19 10:38:11;;;;;;;7.75;3.55;;;;;;;;;;5130918;27;20035;-69
2023/04/19 10:40:55;;;;;;;9.13;3.15;;;;;;;;;;5132056;27;20034;-70
2023/04/19 10:43:23;;;;;;;7.30;3.50;;;;;;;;;;5131651;27;20733;-64
2023/04/19 10:45:48;;;;;;;4.90;3.13;;;;;;;;;;5132032;27;20474;-72
2023/04/19 10:48:26;;;;;;;10.30;3.20;;;;;;;;;;5131864;27;20033;-63
2023/04/19 10:51:03;;;;;;;14.57;4.20;;;;;;;;;;5131308;27;20079;-67
2023/04/19 10:53:47;;;;;;;10.80;4.03;;;;;;;;;;5131063;27;20490;-64
2023/04/19 10:56:13;;;;;;;11.30;3.75;;;;;;;;;;5140071;27;20031;-64
2023/04/19 10:59:01;;;;;;;10.60;3.15;;;;;;;;;;5152425;27;20023;-63
2023/04/19 11:01:41;;;;;;;10.73;3.90;;;;;;;;;;5148648;27;20027;-72
2023/04/19 11:04:28;;;;;;;11.88;4.07;;;;;;;;;;5131842;27;20099;-69
2023/04/19 11:06:54;;;;;;;7.82;3.03;;;;;;;;;;5131245;27;20029;-71
2023/04/19 11:09:30;;;;;;;8.15;3.03;;;;;;;;;;5130874;27;20567;-66
2023/04/19 11:12:02;;;;;;;9.75;3.28;;;;;;;;;;5137767;27;20068;-70
2023/04/19 11:14:31;;;;;;;8.30;3.20;;;;;;;;;;5151534;27;20031;-71
2023/04/19 11:16:56;;;;;;;10.05;4.10;;;;;;;;;;5151761;27;20035;-65
2023/04/19 11:19:22;;;;;;;11.63;3.65;;;;;;;;;;5151106;27;20041;-70
2023/04/19 11:21:48;;;;;;;6.10;3.22;;;;;;;;;;5151549;27;20156;-63
2023/04/19 11:24:17;;;;;;;10.27;3.83;;;;;;;;;;5142467;27;20023;-72
2023/04/19 11:26:44;;;;;;;7.30;3.63;;;;;;;;;;5130633;27;20533;-71
2023/04/19 11:29:11;;;;;;;6.75;3.13;;;;;;;;;;5131033;27;20030;-63
2023/04/19 11:31:36;;;;;;;7.57;2.97;;;;;;;;;;5130580;27;20093;-71
2023/04/19 11:34:02;;;;;;;9.50;2.97;;;;;;;;;;5131419;27;20439;-69
2023/04/19 11:36:28;;;;;;;11.18;7.07;;;;;;;;;;5141287;27;20015;-70
2023/04/19 11:38:53;;;;;;;8.25;4.28;;;;;;;;;;5132369;27;20354;-63
2023/04/19 11:41:19;;;;;;;12.00;3.28;;;;;;;;;;5130018;27;20123;-68
2023/04/19 11:43:45;;;;;;;9.85;4.15;;;;;;;;;;5130443;27;20030;-66
2023/04/19 11:46:12;;;;;;;8.63;3.35;;;;;;;;;;5130639;27;20092;-72
2023/04/19 11:48:38;;;;;;;8.70;3.33;;;;;;;;;;5129889;27;20037;-72
2023/04/19 11:51:04;;;;;;;37.95;13.45;;;;;;;;;;5129838;27;20077;-63
2023/04/19 11:53:31;;;;;;;8.63;4.88;;;;;;;;;;5129520;27;20031;-64
2023/04/19 11:56:04;;;;;;;7.32;4.00;;;;;;;;;;5129993;27;20031;-64
2023/04/19 11:58:34;;;;;;;12.95;4.20;;;;;;;;;;5144725;27;20110;-64
2023/04/19 12:01:08;;;;;;;12.55;4.30;;;;;;;;;;5152230;27;20071;-63
2023/04/19 12:03:46;;;;;;;7.75;3.85;;;;;;;;;;5128732;27;20031;-63
2023/04/19 12:06:13;;;;;;;20.60;11.70;;;;;;;;;;5131575;27;20069;-74
2023/04/19 12:08:45;;;;;;;12.82;6.25;;;;;;;;;;5130590;27;20152;-63
2023/04/19 12:11:11;;;;;;;13.52;4.90;;;;;;;;;;5131125;27;20031;-63
2023/04/19 12:13:37;;;;;;;9.45;4.13;;;;;;;;;;5131432;27;20493;-67
2023/04/19 12:16:03;;;;;;;13.18;4.50;;;;;;;;;;5131189;27;20168;-63
2023/04/19 12:18:50;;;;;;;9.05;3.97;;;;;;;;;;5131236;27;20031;-65
2023/04/19 12:21:31;;;;;;;16.38;5.50;;;;;;;;;;5130954;27;20037;-67
2023/04/19 12:23:58;;;;;;;10.77;4.47;;;;;;;;;;5131364;27;20038;-70
2023/04/19 12:26:28;;;;;;;24.63;10.27;;;;;;;;;;5147360;27;20499;-69
2023/04/19 12:28:54;;;;;;;15.93;4.07;;;;;;;;;;5152207;27;20496;-68
2023/04/19 12:31:20;;;;;;;9.38;3.78;;;;;;;;;;5150122;27;20742;-67
2023/04/19 12:33:46;;;;;;;7.30;3.70;;;;;;;;;;5130862;27;20059;-73
2023/04/19 12:36:11;;;;;;;12.45;4.43;;;;;;;;;;5130828;27;20496;-64
2023/04/19 12:38:37;;;;;;;14.18;4.32;;;;;;;;;;5130809;27;20031;-63
2023/04/19 12:41:02;;;;;;;9.63;3.75;;;;;;;;;;5130728;27;20023;-74
2023/04/19 12:43:31;;;;;;;13.15;4.55;;;;;;;;;;5131267;27;20026;-64
2023/04/19 12:45:57;;;;;;;10.13;4.32;;;;;;;;;;5131278;27;20041;-74
2023/04/19 12:48:23;;;;;;;10.48;3.78;;;;;;;;;;5130325;27;20102;-63
2023/04/19 12:50:49;;;;;;;13.30;4.07;;;;;;;;;;5130769;27;20091;-63
2023/04/19 12:53:14;;;;;;;12.50;5.07;;;;;;;;;;5130154;27;20084;-66
2023/04/19 12:55:40;;;;;;;8.48;4.30;;;;;;;;;;5130394;27;20023;-72
2023/04/19 12:58:05;;;;;;;11.57;3.88;;;;;;;;;;5139027;27;20477;-72
2023/04/19 13:00:31;;;;;;;9.02;4.00;;;;;;;;;;5129931;27;20031;-70
2023/04/19 13:02:56;;;;;;;11.95;4.57;;;;;;;;;;5138444;27;20019;-71
2023/04/19 13:05:22;;;;;;;7.82;3.83;;;;;;;;;;5150876;27;20038;-70
2023/04/19 13:07:47;;;;;;;15.07;4.90;;;;;;;;;;5129734;27;20054;-68
2023/04/19 13:10:13;;;;;;;11.77;4.43;;;;;;;;;;5127651;27;20027;-63
2023/04/19 13:12:38;;;;;;;9.10;4.18;;;;;;;;;;5130130;27;20019;-73
2023/04/19 13:15:04;;;;;;;10.43;4.57;;;;;;;;;;5150348;27;20029;-72
2023/04/19 13:17:30;;;;;;;8.95;3.85;;;;;;;;;;5149033;27;20050;-66
2023/04/19 13:19:55;;;;;;;8.80;3.28;;;;;;;;;;5150765;27;20023;-70
2023/04/19 13:22:21;;;;;;;12.40;4.35;;;;;;;;;;5149635;27;20027;-68
2023/04/19 13:24:46;;;;;;;12.07;4.20;;;;;;;;;;5131034;27;20020;-68
2023/04/19 13:27:12;;;;;;;8.05;3.85;;;;;;;;;;5128538;27;20155;-63
2023/04/19 13:29:37;;;;;;;15.02;4.50;;;;;;;;;;5129589;27;20019;-68
2023/04/19 13:32:06;;;;;;;11.38;3.92;;;;;;;;;;5128196;27;20092;-65
2023/04/19 13:34:32;;;;;;;11.70;4.57;;;;;;;;;;5136904;27;20513;-74
2023/04/19 13:36:57;;;;;;;11.00;4.50;;;;;;;;;;5129013;27;20076;-70
2023/04/19 13:39:23;;;;;;;10.30;4.82;;;;;;;;;;5127171;27;20359;-68
2023/04/19 13:41:48;;;;;;;10.90;5.07;;;;;;;;;;5128784;27;20039;-68
2023/04/19 13:44:14;;;;;;;9.38;3.63;;;;;;;;;;5128850;27;20030;-69
2023/04/19 13:46:39;;;;;;;9.60;3.60;;;;;;;;;;5128207;27;20023;-69
2023/04/19 13:49:05;;;;;;;13.43;5.00;;;;;;;;;;5129087;27;20023;-70
2023/04/19 13:51:30;;;;;;;11.55;4.47;;;;;;;;;;5128516;27;20061;-74
2023/04/19 13:53:56;;;;;;;14.75;5.25;;;;;;;;;;5128693;27;20044;-65
2023/04/19 13:56:21;;;;;;;9.52;4.10;;;;;;;;;;5128331;27;20446;-70
2023/04/19 13:58:47;;;;;;;10.98;4.10;;;;;;;;;;5128611;27;20478;-69
2023/04/19 14:01:12;;;;;;;10.18;3.95;;;;;;;;;;5129159;27;20043;-65
2023/04/19 14:03:37;;;;;;;8.50;3.70;;;;;;;;;;5149535;27;20488;-70
2023/04/19 14:06:03;;;;;;;7.85;3.88;;;;;;;;;;5149290;27;20022;-64
2023/04/19 14:08:29;;;;;;;11.38;4.57;;;;;;;;;;5149451;27;20031;-71
2023/04/19 14:10:54;;;;;;;12.65;5.07;;;;;;;;;;5127203;27;20091;-66
2023/04/19 14:13:20;;;;;;;11.18;4.50;;;;;;;;;;5130216;27;20542;-66
2023/04/19 14:15:45;;;;;;;9.00;4.18;;;;;;;;;;5144232;27;20121;-68
2023/04/19 14:18:11;;;;;;;11.23;4.28;;;;;;;;;;5153019;27;20095;-68
2023/04/19 14:20:36;;;;;;;12.57;3.95;;;;;;;;;;5153010;27;20046;-69
2023/04/19 14:23:02;;;;;;;8.85;3.83;;;;;;;;;;5152653;27;20027;-71
2023/04/19 14:25:28;;;;;;;8.35;3.60;;;;;;;;;;5152380;27;20026;-69
2023/04/19 14:27:53;;;;;;;10.00;4.40;;;;;;;;;;5152908;27;20106;-65
2023/04/19 14:30:24;;;;;;;11.68;4.32;;;;;;;;;;5152402;27;20062;-65
2023/04/19 14:32:50;;;;;;;14.18;6.07;;;;;;;;;;5138068;27;20104;-65
2023/04/19 14:35:15;;;;;;;7.18;4.35;;;;;;;;;;5132040;27;20019;-68